createdAt,value
2022-12-31T00:00:48.895Z,100262.22
2022-12-31T00:02:51.823Z,100269.19
2022-12-31T00:04:55.923Z,100273.50
2022-12-31T00:06:58.773Z,100280.47
2022-12-31T00:09:05.640Z,100273.56
2022-12-31T00:11:08.393Z,100257.91
2022-12-31T00:13:13.021Z,100264.00
2022-12-31T00:15:15.850Z,100248.34
2022-12-31T00:17:18.659Z,100253.56
2022-12-31T00:19:21.510Z,100257.06
2022-12-31T00:21:24.258Z,100260.53
2022-12-31T00:23:27.848Z,100265.75
2022-12-31T00:25:31.931Z,100269.19
2022-12-31T00:27:34.816Z,100258.75
2022-12-31T00:29:37.618Z,100269.19
2022-12-31T00:31:41.176Z,100277.03
2022-12-31T00:33:44.327Z,100269.19
2022-12-31T00:35:47.106Z,100275.25
2022-12-31T00:37:52.521Z,100270.06
2022-12-31T00:39:55.361Z,100267.44
2022-12-31T00:41:59.488Z,100264.84
2022-12-31T00:44:02.377Z,100261.38
2022-12-31T00:46:06.766Z,100263.97
2022-12-31T00:48:09.592Z,100269.19
2022-12-31T00:50:12.401Z,100272.72
2022-12-31T00:52:16.778Z,100275.25
2022-12-31T00:54:19.568Z,100276.16
2022-12-31T00:56:24.697Z,100286.59
2022-12-31T00:58:29.203Z,100287.44
2022-12-31T01:00:31.983Z,100290.06
2022-12-31T01:02:34.980Z,100296.13
2022-12-31T01:04:37.840Z,100290.91
2022-12-31T01:06:41.591Z,100293.53
2022-12-31T01:08:44.728Z,100294.44
2022-12-31T01:11:07.635Z,100303.09
2022-12-31T01:13:11.007Z,100311.78
2022-12-31T01:15:15.193Z,100312.69
2022-12-31T01:17:17.966Z,100319.59
2022-12-31T01:19:24.290Z,100307.47
2022-12-31T01:21:28.801Z,100317.03
2022-12-31T01:23:31.705Z,100307.47
2022-12-31T01:25:36.340Z,100317.97
2022-12-31T01:27:38.997Z,100321.41
2022-12-31T01:29:41.787Z,100321.41
2022-12-31T01:31:45.980Z,100325.78
2022-12-31T01:33:49.077Z,100332.72
2022-12-31T01:35:51.923Z,100331.03
2022-12-31T01:37:54.766Z,100337.97
2022-12-31T01:39:57.528Z,100350.16
2022-12-31T01:42:00.396Z,100345.84
2022-12-31T01:44:24.118Z,100346.69
2022-12-31T01:46:38.444Z,100360.63
2022-12-31T01:48:43.537Z,100359.72
2022-12-31T01:50:47.893Z,100364.97
2022-12-31T01:52:53.672Z,100358.88
2022-12-31T01:55:01.394Z,100355.41
2022-12-31T01:57:05.243Z,100358.03
2022-12-31T01:59:11.138Z,100355.41
2022-12-31T02:01:19.180Z,100351.91
2022-12-31T02:03:23.993Z,100351.97
2022-12-31T02:05:32.197Z,100342.38
2022-12-31T02:07:34.997Z,100351.09
2022-12-31T02:09:40.361Z,100350.28
2022-12-31T02:11:43.289Z,100359.00
2022-12-31T02:13:46.216Z,100356.38
2022-12-31T02:16:05.747Z,100345.94
2022-12-31T02:18:15.067Z,100344.19
2022-12-31T02:20:40.515Z,100330.28
2022-12-31T02:23:13.974Z,100338.13
2022-12-31T02:25:38.873Z,100335.50
2022-12-31T02:27:52.382Z,100332.03
2022-12-31T02:30:12.238Z,100330.25
2022-12-31T02:32:18.884Z,100339.84
2022-12-31T02:34:28.742Z,100340.72
2022-12-31T02:36:37.062Z,100352.91
2022-12-31T02:38:42.761Z,100359.00
2022-12-31T02:40:45.788Z,100355.50
2022-12-31T02:42:54.901Z,100359.88
2022-12-31T02:44:58.271Z,100359.88
2022-12-31T02:47:15.508Z,100352.91
2022-12-31T02:49:24.649Z,100355.50
2022-12-31T02:51:40.792Z,100358.13
2022-12-31T02:54:02.968Z,100359.84
2022-12-31T02:56:13.775Z,100357.25
2022-12-31T02:58:43.656Z,100370.31
2022-12-31T03:01:10.106Z,100361.59
2022-12-31T03:03:14.468Z,100366.84
2022-12-31T03:05:20.343Z,100372.06
2022-12-31T03:07:25.776Z,100377.28
2022-12-31T03:09:28.575Z,100379.88
2022-12-31T03:11:48.837Z,100374.66
2022-12-31T03:13:51.649Z,100371.16
2022-12-31T03:15:54.435Z,100363.31
2022-12-31T03:18:01.080Z,100361.59
2022-12-31T03:20:24.582Z,100370.28
2022-12-31T03:22:29.401Z,100374.63
2022-12-31T03:24:50.052Z,100370.31
2022-12-31T03:26:52.864Z,100361.56
2022-12-31T03:28:55.605Z,100362.44
2022-12-31T03:31:01.508Z,100353.69
2022-12-31T03:33:06.794Z,100360.72
2022-12-31T03:35:13.010Z,100358.94
2022-12-31T03:37:16.726Z,100361.56
2022-12-31T03:39:19.502Z,100360.72
2022-12-31T03:41:22.294Z,100363.31
2022-12-31T03:43:25.139Z,100379.84
2022-12-31T03:45:28.023Z,100371.16
2022-12-31T03:47:30.850Z,100372.03
2022-12-31T03:49:33.695Z,100371.16
2022-12-31T03:51:37.773Z,100358.09
2022-12-31T03:53:40.519Z,100377.25
2022-12-31T03:55:43.389Z,100383.34
2022-12-31T03:57:46.428Z,100377.28
2022-12-31T03:59:49.288Z,100385.09
2022-12-31T04:01:52.181Z,100385.97
2022-12-31T04:03:55.098Z,100379.88
2022-12-31T04:05:57.928Z,100384.22
2022-12-31T04:08:02.982Z,100364.19
2022-12-31T04:10:07.835Z,100364.19
2022-12-31T04:12:10.810Z,100377.28
2022-12-31T04:14:13.646Z,100389.44
2022-12-31T04:16:16.419Z,100380.75
2022-12-31T04:18:19.272Z,100376.38
2022-12-31T04:20:22.072Z,100389.44
2022-12-31T04:22:25.303Z,100389.44
2022-12-31T04:24:29.674Z,100390.31
2022-12-31T04:26:32.458Z,100391.13
2022-12-31T04:28:35.243Z,100389.38
2022-12-31T04:30:38.014Z,100386.75
2022-12-31T04:32:41.357Z,100380.63
2022-12-31T04:34:44.133Z,100397.22
2022-12-31T04:36:46.943Z,100386.72
2022-12-31T04:38:49.800Z,100387.56
2022-12-31T04:41:07.817Z,100382.31
2022-12-31T04:43:10.676Z,100382.31
2022-12-31T04:45:13.502Z,100387.56
2022-12-31T04:47:21.757Z,100389.28
2022-12-31T04:49:26.307Z,100390.19
2022-12-31T04:51:30.441Z,100388.38
2022-12-31T04:53:33.396Z,100382.28
2022-12-31T04:55:36.159Z,100390.13
2022-12-31T04:57:40.383Z,100376.09
2022-12-31T04:59:43.119Z,100383.91
2022-12-31T05:01:46.047Z,100362.06
2022-12-31T05:03:49.275Z,100382.16
2022-12-31T05:05:52.188Z,100397.91
2022-12-31T05:07:54.981Z,100405.72
2022-12-31T05:09:57.707Z,100399.53
2022-12-31T05:12:00.554Z,100404.78
2022-12-31T05:14:04.901Z,100413.50
2022-12-31T05:16:08.760Z,100412.63
2022-12-31T05:18:11.543Z,100418.72
2022-12-31T05:20:14.334Z,100423.94
2022-12-31T05:22:32.120Z,100416.09
2022-12-31T05:24:35.010Z,100419.56
2022-12-31T05:26:37.759Z,100409.94
2022-12-31T05:28:40.653Z,100414.31
2022-12-31T05:30:45.616Z,100414.34
2022-12-31T05:32:48.593Z,100415.22
2022-12-31T05:34:51.856Z,100422.22
2022-12-31T05:36:54.909Z,100426.59
2022-12-31T05:38:57.683Z,100421.34
2022-12-31T05:41:02.381Z,100438.00
2022-12-31T05:43:05.175Z,100438.00
2022-12-31T05:45:09.017Z,100433.59
2022-12-31T05:47:13.163Z,100437.06
2022-12-31T05:49:15.959Z,100437.84
2022-12-31T05:51:18.751Z,100446.56
2022-12-31T05:53:21.688Z,100448.34
2022-12-31T05:55:24.910Z,100454.44
2022-12-31T05:57:27.738Z,100459.72
2022-12-31T05:59:30.525Z,100466.63
2022-12-31T06:01:33.309Z,100463.13
2022-12-31T06:03:37.588Z,100462.25
2022-12-31T06:05:42.743Z,100467.53
2022-12-31T06:07:45.559Z,100463.16
2022-12-31T06:09:49.027Z,100465.78
2022-12-31T06:11:52.058Z,100451.84
2022-12-31T06:13:54.951Z,100453.50
2022-12-31T06:15:57.711Z,100469.28
2022-12-31T06:18:00.532Z,100460.53
2022-12-31T06:20:12.189Z,100450.91
2022-12-31T06:22:15.920Z,100465.81
2022-12-31T06:24:18.753Z,100455.38
2022-12-31T06:26:21.769Z,100463.16
2022-12-31T06:28:24.544Z,100462.31
2022-12-31T06:30:27.306Z,100471.94
2022-12-31T06:32:30.088Z,100471.09
2022-12-31T06:34:32.993Z,100472.81
2022-12-31T06:36:37.104Z,100476.31
2022-12-31T06:38:41.404Z,100477.25
2022-12-31T06:40:44.197Z,100473.72
2022-12-31T06:42:47.275Z,100482.50
2022-12-31T06:44:50.126Z,100473.75
2022-12-31T06:46:52.976Z,100477.25
2022-12-31T06:48:55.804Z,100481.59
2022-12-31T06:51:05.143Z,100485.09
2022-12-31T06:53:09.263Z,100478.09
2022-12-31T06:55:13.763Z,100476.38
2022-12-31T06:57:17.333Z,100479.00
2022-12-31T06:59:28.772Z,100481.63
2022-12-31T07:01:43.625Z,100481.69
2022-12-31T07:03:57.578Z,100490.38
2022-12-31T07:06:10.132Z,100484.28
2022-12-31T07:08:28.070Z,100479.06
2022-12-31T07:10:40.736Z,100489.56
2022-12-31T07:13:01.252Z,100498.31
2022-12-31T07:15:10.410Z,100502.66
2022-12-31T07:17:26.273Z,100497.41
2022-12-31T07:19:42.528Z,100502.69
2022-12-31T07:21:46.079Z,100513.19
2022-12-31T07:23:51.094Z,100508.81
2022-12-31T07:26:00.482Z,100524.53
2022-12-31T07:28:19.080Z,100507.97
2022-12-31T07:30:25.646Z,100519.28
2022-12-31T07:32:40.805Z,100520.16
2022-12-31T07:34:49.244Z,100523.63
2022-12-31T07:37:03.554Z,100514.03
2022-12-31T07:39:12.255Z,100523.63
2022-12-31T07:41:22.364Z,100524.53
2022-12-31T07:43:33.169Z,100537.59
2022-12-31T07:45:42.098Z,100543.69
2022-12-31T07:47:45.456Z,100537.59
2022-12-31T07:49:49.324Z,100538.47
2022-12-31T07:51:53.206Z,100542.84
2022-12-31T07:53:55.948Z,100538.47
2022-12-31T07:56:01.989Z,100524.53
2022-12-31T07:58:17.770Z,100537.63
2022-12-31T08:00:21.441Z,100541.09
2022-12-31T08:02:39.489Z,100548.06
2022-12-31T08:04:50.859Z,100538.47
2022-12-31T08:07:03.540Z,100556.78
2022-12-31T08:09:14.055Z,100562.03
2022-12-31T08:11:26.783Z,100558.53
2022-12-31T08:13:29.848Z,100555.91
2022-12-31T08:15:33.202Z,100552.41
2022-12-31T08:17:36.342Z,100554.16
2022-12-31T08:19:39.713Z,100565.50
2022-12-31T08:21:55.290Z,100562.88
2022-12-31T08:24:06.279Z,100566.38
2022-12-31T08:26:24.770Z,100566.38
2022-12-31T08:28:42.258Z,100568.13
2022-12-31T08:30:55.995Z,100574.25
2022-12-31T08:33:10.735Z,100570.72
2022-12-31T08:35:27.038Z,100572.47
2022-12-31T08:37:37.771Z,100582.94
2022-12-31T08:40:03.680Z,100575.09
2022-12-31T08:42:18.414Z,100579.47
2022-12-31T08:44:30.433Z,100575.94
2022-12-31T08:46:42.018Z,100584.69
2022-12-31T08:48:45.046Z,100580.31
2022-12-31T08:50:48.734Z,100581.19
2022-12-31T08:52:52.260Z,100580.34
2022-12-31T08:54:55.588Z,100593.41
2022-12-31T08:57:06.412Z,100587.31
2022-12-31T08:59:24.943Z,100580.31
2022-12-31T09:01:35.039Z,100580.34
2022-12-31T09:03:51.868Z,100585.56
2022-12-31T09:06:03.634Z,100583.84
2022-12-31T09:08:17.649Z,100575.09
2022-12-31T09:10:26.832Z,100579.47
2022-12-31T09:12:37.200Z,100580.38
2022-12-31T09:14:47.947Z,100584.69
2022-12-31T09:16:59.461Z,100587.28
2022-12-31T09:19:02.287Z,100589.94
2022-12-31T09:21:05.553Z,100597.81
2022-12-31T09:23:08.934Z,100600.41
2022-12-31T09:25:15.693Z,100608.28
2022-12-31T09:27:27.442Z,100614.38
2022-12-31T09:29:52.288Z,100616.97
2022-12-31T09:32:06.632Z,100632.69
2022-12-31T09:34:18.271Z,100622.22
2022-12-31T09:36:28.646Z,100628.34
2022-12-31T09:38:41.881Z,100637.91
2022-12-31T09:41:01.550Z,100634.44
2022-12-31T09:43:46.130Z,100625.72
2022-12-31T09:46:19.431Z,100609.13
2022-12-31T09:48:58.703Z,100610.84
2022-12-31T09:51:21.675Z,100612.63
2022-12-31T09:53:50.206Z,100615.25
2022-12-31T09:55:58.032Z,100616.09
2022-12-31T09:58:12.837Z,100604.75
2022-12-31T10:00:22.084Z,100613.47
2022-12-31T10:02:45.161Z,100611.75
2022-12-31T10:04:59.214Z,100619.59
2022-12-31T10:07:10.923Z,100605.63
2022-12-31T10:09:27.096Z,100601.28
2022-12-31T10:11:38.510Z,100603.00
2022-12-31T10:13:56.740Z,100592.53
2022-12-31T10:16:24.016Z,100603.00
2022-12-31T10:18:40.480Z,100598.63
2022-12-31T10:21:03.640Z,100598.63
2022-12-31T10:23:21.944Z,100606.47
2022-12-31T10:25:38.194Z,100609.94
2022-12-31T10:27:52.591Z,100604.69
2022-12-31T10:30:03.362Z,100608.16
2022-12-31T10:32:18.296Z,100610.78
2022-12-31T10:34:31.761Z,100605.50
2022-12-31T10:36:54.135Z,100608.13
2022-12-31T10:39:13.457Z,100605.50
2022-12-31T10:42:03.952Z,100600.22
2022-12-31T10:44:35.021Z,100603.69
2022-12-31T10:47:10.844Z,100604.56
2022-12-31T10:49:56.923Z,100595.78
2022-12-31T10:52:41.506Z,100594.00
2022-12-31T10:55:26.240Z,100589.63
2022-12-31T10:58:03.600Z,100591.41
2022-12-31T11:00:16.705Z,100586.09
2022-12-31T11:02:50.016Z,100602.66
2022-12-31T11:05:21.389Z,100592.16
2022-12-31T11:07:44.742Z,100592.06
2022-12-31T11:10:20.674Z,100600.75
2022-12-31T11:12:54.095Z,100598.09
2022-12-31T11:15:13.808Z,100609.44
2022-12-31T11:17:35.919Z,100613.66
2022-12-31T11:19:47.663Z,100616.25
2022-12-31T11:22:03.757Z,100605.72
2022-12-31T11:24:19.855Z,100612.69
2022-12-31T11:26:32.983Z,100604.75
2022-12-31T11:29:05.512Z,100595.09
2022-12-31T11:31:19.628Z,100583.69
2022-12-31T11:33:44.074Z,100583.72
2022-12-31T11:36:10.212Z,100585.53
2022-12-31T11:38:23.749Z,100576.69
2022-12-31T11:40:38.511Z,100571.50
2022-12-31T11:42:49.650Z,100567.94
2022-12-31T11:44:58.536Z,100574.03
2022-12-31T11:47:19.811Z,100564.38
2022-12-31T11:49:37.006Z,100565.25
2022-12-31T11:52:00.675Z,100554.72
2022-12-31T11:54:53.263Z,100548.50
2022-12-31T11:57:05.972Z,100552.91
2022-12-31T11:59:17.137Z,100542.47
2022-12-31T12:01:26.182Z,100531.97
2022-12-31T12:03:29.414Z,100538.91
2022-12-31T12:05:34.623Z,100538.88
2022-12-31T12:07:37.445Z,100544.09
2022-12-31T12:09:43.251Z,100546.66
2022-12-31T12:11:46.103Z,100544.84
2022-12-31T12:13:49.313Z,100543.84
2022-12-31T12:15:56.143Z,100549.19
2022-12-31T12:18:01.789Z,100551.75
2022-12-31T12:20:16.674Z,100549.13
2022-12-31T12:22:23.715Z,100549.91
2022-12-31T12:24:28.999Z,100546.31
2022-12-31T12:26:37.441Z,100549.91
2022-12-31T12:28:45.420Z,100542.09
2022-12-31T12:30:54.941Z,100537.59
2022-12-31T12:32:59.298Z,100546.44
2022-12-31T12:35:02.060Z,100555.19
2022-12-31T12:37:05.727Z,100551.50
2022-12-31T12:39:08.623Z,100559.28
2022-12-31T12:41:13.358Z,100553.25
2022-12-31T12:43:26.497Z,100557.59
2022-12-31T12:45:38.020Z,100539.13
2022-12-31T12:47:43.588Z,100547.91
2022-12-31T12:49:48.273Z,100547.97
2022-12-31T12:52:29.682Z,100542.75
2022-12-31T12:54:47.691Z,100532.19
2022-12-31T12:56:56.479Z,100526.13
2022-12-31T12:59:19.378Z,100523.59
2022-12-31T13:01:34.847Z,100526.06
2022-12-31T13:06:34.467Z,100520.06
2022-12-31T13:08:56.589Z,100513.78
2022-12-31T13:11:26.201Z,100521.63
2022-12-31T13:13:38.170Z,100524.31
2022-12-31T13:15:51.945Z,100520.00
2022-12-31T13:18:03.611Z,100522.59
2022-12-31T13:20:16.097Z,100514.59
2022-12-31T13:22:26.079Z,100504.06
2022-12-31T13:24:42.003Z,100502.16
2022-12-31T13:26:52.420Z,100503.03
2022-12-31T13:28:57.221Z,100511.00
2022-12-31T13:31:07.155Z,100503.13
2022-12-31T13:33:16.993Z,100520.75
2022-12-31T13:35:27.329Z,100516.41
2022-12-31T13:37:37.706Z,100510.44
2022-12-31T13:39:45.349Z,100528.69
2022-12-31T13:41:53.373Z,100516.53
2022-12-31T13:44:03.579Z,100525.22
2022-12-31T13:46:15.535Z,100523.47
2022-12-31T13:48:23.504Z,100517.44
2022-12-31T13:50:31.842Z,100525.28
2022-12-31T13:52:39.807Z,100521.03
2022-12-31T13:54:51.766Z,100518.44
2022-12-31T13:56:58.183Z,100515.03
2022-12-31T13:59:06.335Z,100511.47
2022-12-31T14:01:17.091Z,100507.19
2022-12-31T14:03:25.521Z,100509.72
2022-12-31T14:05:35.377Z,100512.53
2022-12-31T14:07:45.901Z,100501.19
2022-12-31T14:09:48.951Z,100503.78
2022-12-31T14:12:19.230Z,100502.03
2022-12-31T14:14:32.029Z,100503.84
2022-12-31T14:16:48.546Z,100493.41
2022-12-31T14:19:01.658Z,100500.41
2022-12-31T14:21:11.480Z,100511.81
2022-12-31T14:23:22.994Z,100501.31
2022-12-31T14:25:32.578Z,100503.06
2022-12-31T14:27:40.452Z,100510.91
2022-12-31T14:29:48.097Z,100510.06
2022-12-31T14:32:16.422Z,100517.09
2022-12-31T14:34:26.731Z,100505.75
2022-12-31T14:36:41.681Z,100516.25
2022-12-31T14:38:55.967Z,100517.22
2022-12-31T14:41:14.948Z,100513.75
2022-12-31T14:43:26.497Z,100520.75
2022-12-31T14:45:40.096Z,100525.13
2022-12-31T14:47:53.264Z,100520.81
2022-12-31T14:50:05.708Z,100528.69
2022-12-31T14:52:09.917Z,100530.47
2022-12-31T14:54:35.009Z,100532.25
2022-12-31T14:56:42.645Z,100527.91
2022-12-31T14:58:57.226Z,100526.22
2022-12-31T15:01:02.098Z,100527.16
2022-12-31T15:03:08.671Z,100530.63
2022-12-31T15:05:17.524Z,100530.59
2022-12-31T15:07:31.272Z,100522.81
2022-12-31T15:09:57.626Z,100531.56
2022-12-31T15:12:17.541Z,100534.22
2022-12-31T15:14:53.556Z,100529.00
2022-12-31T15:17:00.089Z,100524.75
2022-12-31T15:19:30.214Z,100530.91
2022-12-31T15:21:46.985Z,100535.28
2022-12-31T15:23:49.950Z,100544.94
2022-12-31T15:25:58.311Z,100535.31
2022-12-31T15:28:03.251Z,100537.97
2022-12-31T15:30:08.292Z,100535.41
2022-12-31T15:32:19.807Z,100544.16
2022-12-31T15:34:29.528Z,100549.38
2022-12-31T15:36:35.527Z,100548.53
2022-12-31T15:38:39.429Z,100557.25
2022-12-31T15:40:44.686Z,100554.63
2022-12-31T15:42:51.739Z,100550.25
2022-12-31T15:44:59.986Z,100559.00
2022-12-31T15:47:11.019Z,100556.41
2022-12-31T15:49:19.065Z,100564.28
2022-12-31T15:51:28.911Z,100570.44
2022-12-31T15:53:36.987Z,100572.16
2022-12-31T15:55:45.319Z,100572.19
2022-12-31T15:57:48.488Z,100568.69
2022-12-31T15:59:51.304Z,100571.31
2022-12-31T16:01:57.043Z,100568.69
2022-12-31T16:04:04.328Z,100573.06
2022-12-31T16:06:12.137Z,100569.59
2022-12-31T16:08:21.076Z,100573.09
2022-12-31T16:10:26.783Z,100577.47
2022-12-31T16:12:34.410Z,100571.38
2022-12-31T16:14:41.529Z,100581.00
2022-12-31T16:16:53.371Z,100586.25
2022-12-31T16:18:58.325Z,100583.66
2022-12-31T16:21:01.185Z,100583.66
2022-12-31T16:23:19.809Z,100584.56
2022-12-31T16:25:31.119Z,100586.34
2022-12-31T16:27:36.567Z,100591.59
2022-12-31T16:29:45.834Z,100599.44
2022-12-31T16:31:53.927Z,100597.72
2022-12-31T16:34:05.638Z,100596.84
2022-12-31T16:36:20.973Z,100591.63
2022-12-31T16:38:24.233Z,100593.38
2022-12-31T16:40:28.687Z,100592.50
2022-12-31T16:42:31.569Z,100605.63
2022-12-31T16:44:34.379Z,100607.34
2022-12-31T16:46:37.620Z,100599.50
2022-12-31T16:48:40.939Z,100595.19
2022-12-31T16:50:45.568Z,100584.69
2022-12-31T16:52:50.264Z,100589.94
2022-12-31T16:54:55.208Z,100589.94
2022-12-31T16:57:00.048Z,100578.59
2022-12-31T16:59:06.109Z,100590.78
2022-12-31T17:01:14.387Z,100587.34
2022-12-31T17:03:20.623Z,100580.31
2022-12-31T17:05:25.523Z,100588.19
2022-12-31T17:07:39.980Z,100589.91
2022-12-31T17:09:42.780Z,100575.97
2022-12-31T17:11:51.423Z,100586.44
2022-12-31T17:13:58.029Z,100575.97
2022-12-31T17:16:02.262Z,100577.72
2022-12-31T17:18:05.954Z,100566.38
2022-12-31T17:20:10.108Z,100564.63
2022-12-31T17:22:22.847Z,100559.41
2022-12-31T17:24:28.990Z,100567.25
2022-12-31T17:26:34.597Z,100573.38
2022-12-31T17:28:44.338Z,100563.78
2022-12-31T17:30:48.501Z,100575.97
2022-12-31T17:32:53.168Z,100570.75
2022-12-31T17:34:56.067Z,100577.72
2022-12-31T17:37:02.280Z,100576.88
2022-12-31T17:39:18.480Z,100581.22
2022-12-31T17:41:27.154Z,100585.56
2022-12-31T17:43:34.874Z,100590.78
2022-12-31T17:45:39.619Z,100582.97
2022-12-31T17:47:48.110Z,100592.53
2022-12-31T17:49:51.080Z,100593.44
2022-12-31T17:51:54.076Z,100595.19
2022-12-31T17:53:57.314Z,100596.94
2022-12-31T17:56:03.549Z,100594.31
2022-12-31T17:58:07.665Z,100596.03
2022-12-31T18:00:18.371Z,100599.53
2022-12-31T18:02:21.421Z,100603.91
2022-12-31T18:04:26.996Z,100610.03
2022-12-31T18:06:30.118Z,100610.88
2022-12-31T18:08:32.914Z,100620.47
2022-12-31T18:10:38.243Z,100612.63
2022-12-31T18:12:41.306Z,100606.50
2022-12-31T18:14:46.462Z,100610.91
2022-12-31T18:16:49.339Z,100610.00
2022-12-31T18:18:52.303Z,100603.91
2022-12-31T18:20:59.624Z,100610.00
2022-12-31T18:23:02.383Z,100612.63
2022-12-31T18:25:07.242Z,100618.72
2022-12-31T18:27:16.481Z,100620.44
2022-12-31T18:29:19.875Z,100624.84
2022-12-31T18:31:24.977Z,100627.47
2022-12-31T18:33:28.541Z,100626.53
2022-12-31T18:36:06.920Z,100633.53
2022-12-31T18:37:55.675Z,100621.31
2022-12-31T18:39:58.529Z,100634.38
2022-12-31T18:42:01.331Z,100637.00
2022-12-31T18:44:04.379Z,100638.75
2022-12-31T18:46:07.198Z,100640.50
2022-12-31T18:48:10.726Z,100644.00
2022-12-31T18:50:15.244Z,100640.50
2022-12-31T18:52:20.057Z,100655.31
2022-12-31T18:54:24.063Z,100652.72
2022-12-31T18:56:27.279Z,100652.72
2022-12-31T18:58:30.026Z,100642.28
2022-12-31T19:00:33.121Z,100650.13
2022-12-31T19:02:37.033Z,100646.66
2022-12-31T19:04:40.159Z,100651.00
2022-12-31T19:06:43.498Z,100646.59
2022-12-31T19:08:46.308Z,100648.41
2022-12-31T19:10:52.121Z,100641.41
2022-12-31T19:12:55.411Z,100643.16
2022-12-31T19:14:58.422Z,100633.56
2022-12-31T19:19:08.429Z,100637.91
2022-12-31T19:21:17.285Z,100637.03
2022-12-31T19:23:22.363Z,100629.19
2022-12-31T19:25:27.638Z,100634.41
2022-12-31T19:27:31.762Z,100637.03
2022-12-31T19:29:34.582Z,100639.66
2022-12-31T19:31:37.429Z,100643.16
2022-12-31T19:33:40.379Z,100638.81
2022-12-31T19:35:43.779Z,100642.28
2022-12-31T19:37:48.133Z,100646.66
2022-12-31T19:39:50.923Z,100641.41
2022-12-31T19:41:58.920Z,100639.66
2022-12-31T19:44:03.734Z,100644.03
2022-12-31T19:46:06.696Z,100640.53
2022-12-31T19:48:12.166Z,100635.31
2022-12-31T19:50:16.967Z,100644.03
2022-12-31T19:52:19.851Z,100644.03
2022-12-31T19:54:22.612Z,100642.28
2022-12-31T19:56:25.426Z,100646.66
2022-12-31T19:58:28.478Z,100645.75
2022-12-31T20:00:32.658Z,100654.47
2022-12-31T20:02:36.020Z,100645.72
2022-12-31T20:04:38.910Z,100641.34
2022-12-31T20:06:41.698Z,100645.72
2022-12-31T20:08:44.702Z,100646.59
2022-12-31T20:10:47.658Z,100650.94
2022-12-31T20:12:50.423Z,100650.06
2022-12-31T20:14:53.218Z,100646.56
2022-12-31T20:16:57.512Z,100643.97
2022-12-31T20:19:00.437Z,100648.28
2022-12-31T20:21:03.265Z,100655.28
2022-12-31T20:23:06.088Z,100657.88
2022-12-31T20:25:09.610Z,100649.19
2022-12-31T20:27:18.284Z,100647.44
2022-12-31T20:29:21.524Z,100653.53
2022-12-31T20:31:26.172Z,100654.41
2022-12-31T20:33:30.856Z,100656.13
2022-12-31T20:35:33.602Z,100657.88
2022-12-31T20:37:36.482Z,100657.88
2022-12-31T20:39:39.245Z,100661.38
2022-12-31T20:41:42.050Z,100661.38
2022-12-31T20:43:45.127Z,100655.25
2022-12-31T20:45:48.592Z,100655.25
2022-12-31T20:47:51.473Z,100658.72
2022-12-31T20:50:12.469Z,100643.91
2022-12-31T20:52:15.690Z,100654.38
2022-12-31T20:54:18.751Z,100663.06
2022-12-31T20:56:22.480Z,100654.38
2022-12-31T20:58:25.277Z,100665.69
2022-12-31T21:00:28.430Z,100658.72
2022-12-31T21:02:41.307Z,100656.97
2022-12-31T21:04:46.866Z,100663.06
2022-12-31T21:06:52.227Z,100655.19
2022-12-31T21:08:55.576Z,100663.91
2022-12-31T21:10:58.451Z,100666.53
2022-12-31T21:13:00.235Z,100662.19
2022-12-31T21:15:03.241Z,100662.19
2022-12-31T21:17:06.011Z,100669.19
2022-12-31T21:19:09.803Z,100662.19
2022-12-31T21:21:13.037Z,100660.44
2022-12-31T21:23:17.958Z,100661.31
2022-12-31T21:25:20.747Z,100666.53
2022-12-31T21:27:23.556Z,100663.94
2022-12-31T21:29:32.639Z,100659.56
2022-12-31T21:31:37.255Z,100660.44
2022-12-31T21:33:40.139Z,100665.69
2022-12-31T21:35:50.105Z,100663.06
2022-12-31T21:37:59.066Z,100668.28
2022-12-31T21:40:05.467Z,100668.28
2022-12-31T21:42:08.218Z,100676.19
2022-12-31T21:44:10.980Z,100676.19
2022-12-31T21:46:13.846Z,100668.34
2022-12-31T21:48:24.790Z,100675.28
2022-12-31T21:50:27.565Z,100677.88
2022-12-31T21:52:33.374Z,100677.03
2022-12-31T21:54:53.811Z,100682.22
2022-12-31T21:56:58.122Z,100687.50
2022-12-31T21:59:18.593Z,100677.88
2022-12-31T22:01:40.279Z,100691.81
2022-12-31T22:03:43.690Z,100696.19
2022-12-31T22:05:48.643Z,100696.16
2022-12-31T22:07:51.418Z,100694.41
2022-12-31T22:09:54.217Z,100692.66
2022-12-31T22:11:58.489Z,100694.38
2022-12-31T22:14:01.279Z,100696.16
2022-12-31T22:16:06.082Z,100687.41
2022-12-31T22:18:09.136Z,100696.09
2022-12-31T22:20:28.675Z,100689.16
2022-12-31T22:22:31.803Z,100690.03
2022-12-31T22:24:34.643Z,100697.84
2022-12-31T22:26:41.699Z,100697.00
2022-12-31T22:28:49.297Z,100702.19
2022-12-31T22:30:52.188Z,100706.53
2022-12-31T22:32:55.302Z,100713.50
2022-12-31T22:34:58.163Z,100716.13
2022-12-31T22:37:14.365Z,100723.03
2022-12-31T22:39:43.483Z,100719.56
2022-12-31T22:41:46.537Z,100728.22
2022-12-31T22:43:55.982Z,100725.59
2022-12-31T22:46:08.602Z,100727.34
2022-12-31T22:48:11.404Z,100737.75
2022-12-31T22:50:14.290Z,100735.16
2022-12-31T22:52:17.123Z,100740.38
2022-12-31T22:54:19.915Z,100729.06
2022-12-31T22:56:22.943Z,100732.53
2022-12-31T22:58:26.331Z,100736.00
2022-12-31T23:00:40.115Z,100735.13
2022-12-31T23:02:43.316Z,100734.28
2022-12-31T23:04:46.119Z,100732.50
2022-12-31T23:06:48.965Z,100736.84
2022-12-31T23:09:06.560Z,100745.53
2022-12-31T23:11:09.981Z,100743.78
2022-12-31T23:13:30.508Z,100746.44
2022-12-31T23:15:52.276Z,100748.19
2022-12-31T23:18:12.503Z,100742.09
2022-12-31T23:20:36.163Z,100737.72
2022-12-31T23:22:56.480Z,100733.38
2022-12-31T23:24:59.372Z,100733.34
2022-12-31T23:27:02.146Z,100734.25
2022-12-31T23:29:04.915Z,100735.94
2022-12-31T23:31:09.174Z,100732.47
2022-12-31T23:33:15.336Z,100735.09
2022-12-31T23:35:18.288Z,100741.16
2022-12-31T23:37:21.119Z,100722.03
2022-12-31T23:39:23.943Z,100722.00
2022-12-31T23:41:26.761Z,100734.25
2022-12-31T23:43:29.530Z,100738.59
2022-12-31T23:45:33.699Z,100741.22
2022-12-31T23:47:38.247Z,100739.50
2022-12-31T23:49:41.088Z,100748.22
2022-12-31T23:51:43.947Z,100736.91
2022-12-31T23:53:46.769Z,100736.06
2022-12-31T23:55:49.532Z,100736.06
2022-12-31T23:57:52.328Z,100743.91
2022-12-31T23:59:55.179Z,100740.38
